Time;durP1;ratioP1;P1;durP2;ratioP2;P2;SDS_P1;SDS_P2;PMS_P1;PMS_P2;Temp;Humidity;BMP_temperature;BMP_pressure;BME280_temperature;BME280_humidity;BME280_pressure;Samples;Min_cycle;Max_cycle;Signal;HPM_P1;HPM_P2
2020/12/04 00:02:12;;;;;;;27.38;14.55;;;;;;;4.85;49.59;99152.78;5002539;28;97174;-74
2020/12/04 00:04:40;;;;;;;22.90;14.02;;;;;;;4.85;49.65;99162.31;4996431;28;96955;-73
2020/12/04 00:07:26;;;;;;;23.98;15.38;;;;;;;4.83;49.28;99148.34;4998229;28;98119;-74
2020/12/04 00:09:54;;;;;;;23.40;14.70;;;;;;;4.82;49.55;99151.75;4996997;28;99046;-74
2020/12/04 00:12:22;;;;;;;25.40;14.93;;;;;;;4.81;49.46;99140.47;4999295;28;97248;-73
2020/12/04 00:14:49;;;;;;;22.92;14.15;;;;;;;4.82;49.24;99136.13;5002253;28;96736;-74
2020/12/04 00:17:21;;;;;;;24.25;14.27;;;;;;;4.83;49.19;99131.03;4997082;28;98431;-75
2020/12/04 00:19:49;;;;;;;21.10;13.30;;;;;;;4.84;49.49;99135.41;5001203;28;99044;-74
2020/12/04 00:22:16;;;;;;;23.60;13.77;;;;;;;4.84;49.47;99129.31;4996631;28;97229;-73
2020/12/04 00:24:43;;;;;;;22.60;13.93;;;;;;;4.84;49.30;99125.00;4999061;28;97355;-71
2020/12/04 00:27:12;;;;;;;22.13;14.63;;;;;;;4.80;49.27;99125.66;5003678;28;97688;-72
2020/12/04 00:29:40;;;;;;;22.50;13.55;;;;;;;4.82;49.50;99120.53;5000407;28;98806;-73
2020/12/04 00:32:07;;;;;;;19.80;13.63;;;;;;;4.84;49.24;99118.91;4997149;28;97559;-73
2020/12/04 00:34:35;;;;;;;24.42;14.20;;;;;;;4.87;48.90;99117.34;5001462;28;97363;-72
2020/12/04 00:37:02;;;;;;;23.10;15.00;;;;;;;4.89;49.37;99115.69;5001587;28;97881;-75
2020/12/04 00:39:29;;;;;;;20.90;12.68;;;;;;;4.94;48.93;99113.34;5001146;28;97897;-73
2020/12/04 00:41:58;;;;;;;23.23;13.82;;;;;;;4.95;49.34;99108.19;5004341;28;96720;-73
2020/12/04 00:44:26;;;;;;;25.52;14.52;;;;;;;4.98;49.48;99108.34;5002167;28;96957;-73
2020/12/04 00:47:12;;;;;;;23.17;13.45;;;;;;;4.98;49.05;99110.06;5001200;28;98061;-73
2020/12/04 00:49:40;;;;;;;24.55;14.18;;;;;;;4.99;48.75;99104.03;4984029;28;100895;-73
2020/12/04 00:52:07;;;;;;;26.42;14.48;;;;;;;5.00;49.48;99095.41;5003826;28;96761;-72
2020/12/04 00:54:35;;;;;;;25.52;14.10;;;;;;;5.02;48.72;99105.06;5000333;28;97303;-73
2020/12/04 00:57:06;;;;;;;23.58;14.10;;;;;;;5.02;48.96;99105.06;5001290;28;99674;-73
2020/12/04 00:59:43;;;;;;;26.80;14.98;;;;;;;5.03;48.91;99105.97;4995967;28;97793;-73
2020/12/04 01:02:10;;;;;;;25.17;15.50;;;;;;;5.05;49.19;99101.72;5000456;28;97331;-73
2020/12/04 01:04:38;;;;;;;26.90;14.02;;;;;;;5.05;49.09;99101.72;5000446;28;96827;-73
2020/12/04 01:07:07;;;;;;;25.02;14.07;;;;;;;5.06;49.02;99091.41;5002203;28;99138;-73
2020/12/04 01:09:35;;;;;;;27.17;15.40;;;;;;;5.05;49.10;99093.94;5004397;28;97030;-73
2020/12/04 01:12:04;;;;;;;26.75;15.57;;;;;;;5.05;48.87;99093.94;4997927;28;96744;-72
2020/12/04 01:14:51;;;;;;;27.85;14.43;;;;;;;5.05;48.77;99080.91;5003020;28;97256;-73
2020/12/04 01:17:18;;;;;;;28.40;15.55;;;;;;;5.04;49.16;99071.31;4995733;28;99055;-72
2020/12/04 01:19:46;;;;;;;27.10;15.35;;;;;;;5.04;49.00;99081.72;4998307;28;99362;-73
2020/12/04 01:22:14;;;;;;;27.98;15.80;;;;;;;5.05;48.92;99093.94;5003463;28;97279;-72
2020/12/04 01:24:42;;;;;;;28.65;15.45;;;;;;;5.06;48.97;99078.38;5005247;28;97100;-71
2020/12/04 01:27:09;;;;;;;27.65;15.57;;;;;;;5.08;49.11;99078.44;4994656;28;97779;-73
2020/12/04 01:29:37;;;;;;;28.38;15.85;;;;;;;5.09;48.99;99075.91;4999403;28;99133;-73
2020/12/04 01:32:05;;;;;;;25.80;15.55;;;;;;;5.12;48.37;99075.19;4999566;28;97394;-72
2020/12/04 01:34:32;;;;;;;30.38;16.58;;;;;;;5.13;49.11;99071.75;5002677;28;97265;-73
2020/12/04 01:37:00;;;;;;;26.98;14.70;;;;;;;5.13;48.56;99062.22;4998594;28;100154;-73
2020/12/04 01:39:27;;;;;;;29.75;16.23;;;;;;;5.15;48.86;99064.91;4993480;28;98056;-73
2020/12/04 01:41:54;;;;;;;39.42;22.95;;;;;;;5.39;47.66;99063.44;4998825;28;96921;-72
2020/12/04 01:44:22;;;;;;;36.55;22.58;;;;;;;5.57;47.38;99060.75;4998983;28;97530;-73
2020/12/04 01:46:50;;;;;;;32.15;17.73;;;;;;;5.36;48.16;99055.50;4998505;28;100739;-73
2020/12/04 01:49:18;;;;;;;24.33;15.68;;;;;;;5.30;48.50;99063.00;4999963;28;100932;-73
2020/12/04 01:51:47;;;;;;;36.30;22.88;;;;;;;5.54;47.56;99058.91;4996506;28;98409;-72
2020/12/04 01:54:16;;;;;;;29.73;16.88;;;;;;;5.37;47.64;99046.84;4997491;28;98087;-73
2020/12/04 01:56:43;;;;;;;30.08;15.50;;;;;;;5.32;48.48;99042.25;5000588;28;99631;-73
2020/12/04 01:59:11;;;;;;;32.10;16.33;;;;;;;5.28;47.96;99049.03;4999322;28;101141;-73
2020/12/04 02:01:41;;;;;;;39.40;22.73;;;;;;;5.55;47.35;99032.03;4996178;28;96809;-72
2020/12/04 02:04:09;;;;;;;39.10;23.40;;;;;;;5.72;46.40;99027.56;4998234;28;96975;-73
2020/12/04 02:06:43;;;;;;;39.90;22.87;;;;;;;5.88;46.34;99028.34;4994909;28;99187;-72
2020/12/04 02:09:13;;;;;;;38.42;21.95;;;;;;;5.98;45.46;99025.31;4994346;28;97277;-73
2020/12/04 02:11:42;;;;;;;30.42;17.15;;;;;;;5.71;46.28;99023.22;4979764;28;97256;-72
2020/12/04 02:14:09;;;;;;;28.65;16.90;;;;;;;5.60;47.45;99017.50;4999148;28;97167;-73
2020/12/04 02:16:39;;;;;;;32.15;16.77;;;;;;;5.54;47.16;99026.78;4999557;28;97204;-73
2020/12/04 02:19:06;;;;;;;37.85;22.50;;;;;;;5.78;47.01;99015.72;4995379;28;100579;-72
2020/12/04 02:21:35;;;;;;;37.90;22.50;;;;;;;5.95;46.00;99025.16;4996798;28;97357;-73
2020/12/04 02:24:02;;;;;;;29.33;17.58;;;;;;;5.76;46.81;99011.25;4999359;28;96842;-73
2020/12/04 02:26:30;;;;;;;30.45;17.40;;;;;;;5.68;47.08;99008.31;4996507;28;99287;-72
2020/12/04 02:29:02;;;;;;;31.02;17.30;;;;;;;5.63;47.36;99014.16;4997624;28;98015;-73
2020/12/04 02:31:30;;;;;;;27.83;16.52;;;;;;;5.55;47.10;99010.31;5020632;27;96952;-73
2020/12/04 02:33:57;;;;;;;30.25;16.80;;;;;;;5.45;47.89;99005.53;5002259;28;97105;-73
2020/12/04 02:36:24;;;;;;;31.95;17.60;;;;;;;5.42;47.38;99008.03;4999717;28;99901;-73
2020/12/04 02:38:53;;;;;;;34.63;16.25;;;;;;;5.39;47.77;98998.34;5003874;28;99022;-73
2020/12/04 02:41:20;;;;;;;31.83;16.95;;;;;;;5.40;47.38;98999.25;4998354;28;96740;-73
2020/12/04 02:43:48;;;;;;;28.02;15.77;;;;;;;5.35;47.56;98999.03;4996580;28;97168;-73
2020/12/04 02:46:15;;;;;;;30.27;17.33;;;;;;;5.34;47.54;99001.56;4999960;28;98275;-73
2020/12/04 02:48:42;;;;;;;31.08;16.70;;;;;;;5.29;47.50;98985.78;5000838;28;100390;-73
2020/12/04 02:51:10;;;;;;;26.95;15.75;;;;;;;5.24;47.99;98975.97;5001149;28;96768;-73
2020/12/04 02:53:37;;;;;;;31.73;16.63;;;;;;;5.18;47.72;98973.09;5003935;28;96943;-73
2020/12/04 02:56:05;;;;;;;30.15;16.42;;;;;;;5.13;48.02;98981.56;5004393;28;97982;-74
2020/12/04 02:58:33;;;;;;;35.97;22.00;;;;;;;5.39;47.46;98974.91;5000436;28;98938;-74
2020/12/04 03:01:00;;;;;;;30.98;17.88;;;;;;;5.21;47.36;98971.50;5001209;28;97053;-74
2020/12/04 03:03:28;;;;;;;34.30;17.08;;;;;;;5.17;47.52;98964.38;4999981;28;97030;-73
2020/12/04 03:05:55;;;;;;;39.30;23.23;;;;;;;5.41;47.33;98965.47;4998436;28;100630;-73
2020/12/04 03:08:25;;;;;;;31.58;17.83;;;;;;;5.25;47.16;98959.53;4997689;28;98379;-73
2020/12/04 03:10:52;;;;;;;;;;;;;;;5.11;47.33;98962.41;5002128;28;97117;-73
2020/12/04 03:13:21;;;;;;;31.05;16.55;;;;;;;5.11;47.50;98959.78;4991606;28;96880;-72
2020/12/04 03:15:49;;;;;;;38.33;23.02;;;;;;;5.35;47.02;98953.88;4997721;28;99114;-73
2020/12/04 03:18:16;;;;;;;37.13;23.52;;;;;;;5.53;46.63;98957.31;4996603;28;98925;-74
2020/12/04 03:20:43;;;;;;;27.85;16.88;;;;;;;5.22;46.89;98947.25;4996760;28;97016;-73
2020/12/04 03:23:11;;;;;;;32.85;17.70;;;;;;;5.12;47.57;98945.06;5015805;27;96850;-73
2020/12/04 03:25:39;;;;;;;28.33;16.23;;;;;;;5.04;47.46;98946.44;4993799;28;98063;-72
2020/12/04 03:28:06;;;;;;;33.47;17.42;;;;;;;4.96;47.70;98951.28;4998579;28;97878;-73
2020/12/04 03:30:35;;;;;;;39.55;22.88;;;;;;;5.22;47.00;98952.47;4994220;28;96658;-73
2020/12/04 03:33:02;;;;;;;41.65;24.17;;;;;;;5.42;46.09;98951.63;4996655;28;97113;-73
2020/12/04 03:35:30;;;;;;;33.55;19.08;;;;;;;5.14;47.26;98953.84;4997801;28;101742;-73
2020/12/04 03:37:57;;;;;;;30.70;16.95;;;;;;;5.03;47.51;98950.78;4997567;28;98099;-74
2020/12/04 03:40:24;;;;;;;31.30;17.35;;;;;;;4.94;47.60;98957.25;4997852;28;97147;-73
2020/12/04 03:42:51;;;;;;;31.30;17.70;;;;;;;4.86;47.82;98945.59;4998176;28;96699;-73
2020/12/04 03:45:19;;;;;;;29.13;17.25;;;;;;;4.80;47.98;98935.81;4999499;28;99052;-74
2020/12/04 03:47:47;;;;;;;28.70;17.23;;;;;;;4.77;48.10;98934.78;4997034;28;99252;-73
2020/12/04 03:50:15;;;;;;;27.55;14.80;;;;;;;4.78;47.63;98944.38;4997741;28;97079;-72
2020/12/04 03:52:42;;;;;;;33.05;17.50;;;;;;;4.74;47.99;98942.47;5002637;28;96771;-73
2020/12/04 03:55:09;;;;;;;31.98;16.52;;;;;;;4.67;48.26;98943.00;5002433;28;97973;-73
2020/12/04 03:57:37;;;;;;;38.17;22.13;;;;;;;4.93;47.61;98938.16;4995424;28;97820;-72
2020/12/04 04:00:07;;;;;;;33.25;17.88;;;;;;;4.75;47.67;98936.41;4999518;28;96723;-73
2020/12/04 04:02:38;;;;;;;30.60;17.92;;;;;;;4.68;48.04;98944.75;4996531;28;97847;-73
2020/12/04 04:05:07;;;;;;;31.80;17.67;;;;;;;4.63;48.25;98941.97;4997514;28;98145;-72
2020/12/04 04:07:34;;;;;;;34.40;17.08;;;;;;;4.63;48.41;98934.16;4995215;28;98556;-73
2020/12/04 04:10:03;;;;;;;32.53;16.45;;;;;;;4.60;48.05;98934.00;5000532;28;97197;-73
2020/12/04 04:12:30;;;;;;;38.85;23.13;;;;;;;4.86;47.26;98930.91;4997892;28;97029;-72
2020/12/04 04:14:58;;;;;;;31.38;18.13;;;;;;;4.70;48.03;98930.13;4997147;28;101320;-72
2020/12/04 04:17:25;;;;;;;31.40;17.80;;;;;;;4.65;47.69;98929.03;4995625;28;97389;-73
2020/12/04 04:19:53;;;;;;;39.57;23.70;;;;;;;4.96;47.54;98927.00;4996289;28;97162;-72
2020/12/04 04:22:21;;;;;;;30.40;17.30;;;;;;;4.79;47.68;98933.16;4997511;28;97558;-72
2020/12/04 04:24:48;;;;;;;36.40;18.48;;;;;;;4.76;47.93;98933.03;4997323;28;99171;-73
2020/12/04 04:27:16;;;;;;;39.90;23.35;;;;;;;5.01;47.42;98920.28;4996920;28;97783;-72
2020/12/04 04:29:43;;;;;;;28.42;17.10;;;;;;;4.85;47.43;98915.22;4997566;28;96827;-73
2020/12/04 04:32:10;;;;;;;32.88;17.65;;;;;;;4.77;48.00;98908.78;4998350;28;97738;-73
2020/12/04 04:34:38;;;;;;;31.60;17.08;;;;;;;4.74;47.98;98903.44;4997915;28;98960;-74
2020/12/04 04:37:06;;;;;;;31.58;16.13;;;;;;;4.71;48.35;98900.69;4997585;28;97798;-73
2020/12/04 04:39:34;;;;;;;32.15;17.23;;;;;;;4.71;47.97;98898.09;4996241;28;97279;-73
2020/12/04 04:42:02;;;;;;;41.10;23.75;;;;;;;4.96;47.15;98895.78;5000657;28;96719;-72
2020/12/04 04:44:29;;;;;;;39.80;23.73;;;;;;;5.16;46.51;98884.56;4997105;28;99133;-73
2020/12/04 04:47:09;;;;;;;32.30;17.48;;;;;;;4.92;47.25;98889.56;5002430;28;96733;-72
2020/12/04 04:49:45;;;;;;;26.67;16.17;;;;;;;4.85;nan;98892.69;4999615;28;96837;-73
2020/12/04 04:52:13;;;;;;;30.50;16.77;;;;;;;4.82;47.38;98889.97;4999652;28;96969;-72
2020/12/04 04:54:44;;;;;;;28.98;16.42;;;;;;;4.79;47.85;98886.34;4996703;28;99123;-73
2020/12/04 04:57:12;;;;;;;31.30;16.50;;;;;;;4.79;47.80;98889.84;4998430;28;98108;-73
2020/12/04 04:59:39;;;;;;;27.20;16.23;;;;;;;4.80;47.84;98878.59;5002402;28;96878;-73
2020/12/04 05:02:10;;;;;;;35.17;16.38;;;;;;;4.79;48.20;98884.63;4996408;28;96832;-72
2020/12/04 05:04:49;;;;;;;33.33;18.27;;;;;;;4.81;47.86;98889.91;5015422;28;98980;-72
2020/12/04 05:07:26;;;;;;;35.03;16.85;;;;;;;4.81;47.97;98879.50;4995205;28;97750;-73
2020/12/04 05:09:55;;;;;;;35.17;17.80;;;;;;;4.83;47.75;98877.84;5000167;28;97297;-72
2020/12/04 05:12:23;;;;;;;32.28;16.80;;;;;;;4.83;48.01;98878.75;5002821;28;97225;-72
2020/12/04 05:14:50;;;;;;;29.95;17.45;;;;;;;4.83;47.96;98889.16;4998574;28;97121;-73
2020/12/04 05:17:17;;;;;;;33.67;18.08;;;;;;;4.85;47.79;98886.63;5003898;28;98016;-74
2020/12/04 05:20:15;;;;;;;33.25;17.65;;;;;;;4.81;48.09;98884.69;5001728;28;96744;-73
2020/12/04 05:22:53;;;;;;;34.67;17.92;;;;;;;4.79;47.62;98881.13;5005980;28;96712;-73
2020/12/04 05:25:41;;;;;;;36.22;17.88;;;;;;;4.77;48.07;98883.69;5004053;28;96851;-73
2020/12/04 05:28:29;;;;;;;33.85;17.55;;;;;;;4.74;48.09;98874.84;4999514;28;97973;-73
2020/12/04 05:31:05;;;;;;;31.80;17.25;;;;;;;4.76;47.74;98875.81;5005100;28;97095;-73
2020/12/04 05:33:32;;;;;;;37.83;17.58;;;;;;;4.75;48.16;98874.91;5001568;28;97053;-73
2020/12/04 05:36:00;;;;;;;35.42;18.23;;;;;;;4.75;47.59;98879.22;5002439;28;99061;-72
2020/12/04 05:38:50;;;;;;;46.90;25.42;;;;;;;4.97;47.66;98877.66;4997405;28;98350;-73
2020/12/04 05:41:18;;;;;;;45.00;26.40;;;;;;;5.13;46.76;98874.00;5001932;28;97414;-72
2020/12/04 05:43:46;;;;;;;44.10;26.15;;;;;;;5.29;46.80;98868.66;4994827;28;97208;-73
2020/12/04 05:46:17;;;;;;;39.85;21.50;;;;;;;5.06;47.75;98865.03;5000247;28;96642;-72
2020/12/04 05:48:55;;;;;;;36.35;19.33;;;;;;;5.02;47.18;98864.81;4998450;28;97169;-70
2020/12/04 05:51:24;;;;;;;47.33;26.40;;;;;;;5.23;46.64;98868.38;5020677;27;97207;-71
2020/12/04 05:53:53;;;;;;;38.17;20.92;;;;;;;5.07;47.57;98858.13;4998641;28;96897;-73
2020/12/04 05:56:21;;;;;;;45.50;26.95;;;;;;;5.30;46.89;98854.78;4996805;28;99852;-71
2020/12/04 05:58:52;;;;;;;37.38;19.67;;;;;;;5.09;47.06;98856.50;5001143;28;98561;-73
2020/12/04 06:01:21;;;;;;;45.38;26.23;;;;;;;5.34;46.94;98855.81;5006130;28;97016;-71
2020/12/04 06:03:49;;;;;;;37.83;20.05;;;;;;;5.12;47.39;98862.72;4997117;28;97347;-71
2020/12/04 06:06:24;;;;;;;45.53;26.48;;;;;;;5.38;46.32;98860.31;5000236;28;102161;-71
2020/12/04 06:08:53;;;;;;;43.47;25.75;;;;;;;5.53;46.28;98860.97;4999012;28;101647;-73
2020/12/04 06:11:22;;;;;;;36.45;20.42;;;;;;;5.28;46.83;98860.75;4982435;28;97378;-74
2020/12/04 06:13:50;;;;;;;34.55;19.35;;;;;;;5.20;47.43;98865.63;5004407;28;97351;-72
2020/12/04 06:16:18;;;;;;;37.38;20.40;;;;;;;5.15;47.48;98856.72;4996730;28;97931;-75
2020/12/04 06:18:45;;;;;;;32.42;18.40;;;;;;;5.14;47.50;98870.59;4999743;28;97791;-72
2020/12/04 06:21:13;;;;;;;35.17;19.60;;;;;;;5.11;47.71;98866.13;4999913;28;97622;-73
2020/12/04 06:24:04;;;;;;;38.80;18.92;;;;;;;5.09;47.74;98862.56;4999421;28;97413;-73
2020/12/04 06:26:46;;;;;;;38.80;19.13;;;;;;;5.07;47.80;98858.13;4993722;28;98854;-73
2020/12/04 06:29:14;;;;;;;38.83;19.27;;;;;;;5.09;47.42;98856.50;4996539;28;97285;-74
2020/12/04 06:31:41;;;;;;;38.88;19.70;;;;;;;5.10;47.71;98851.34;5000274;28;97253;-74
2020/12/04 06:34:16;;;;;;;39.08;20.83;;;;;;;5.09;48.06;98856.50;4999011;28;96784;-73
2020/12/04 06:36:44;;;;;;;37.05;19.67;;;;;;;5.10;47.96;98848.75;5000465;28;97917;-73
2020/12/04 06:39:28;;;;;;;41.97;19.33;;;;;;;5.08;48.12;98850.38;5002126;28;101182;-73
2020/12/04 06:41:56;;;;;;;36.72;17.75;;;;;;;5.08;48.26;98834.78;5000235;28;96815;-74
2020/12/04 06:44:25;;;;;;;37.92;19.23;;;;;;;5.08;47.91;98834.78;5003531;28;97306;-73
2020/12/04 06:47:13;;;;;;;33.80;18.70;;;;;;;5.08;47.81;98836.47;5002271;28;96944;-73
2020/12/04 06:49:40;;;;;;;42.20;20.13;;;;;;;5.07;48.26;98846.00;5003101;28;97880;-74
2020/12/04 06:52:09;;;;;;;43.67;20.63;;;;;;;5.06;48.33;98845.94;4998656;28;97063;-73
2020/12/04 06:54:41;;;;;;;42.22;19.73;;;;;;;5.05;48.21;98850.25;5000988;28;97430;-73
2020/12/04 06:57:09;;;;;;;40.88;19.42;;;;;;;5.02;48.56;98854.41;5007755;28;97872;-74
2020/12/04 06:59:38;;;;;;;42.83;19.92;;;;;;;5.01;48.51;98848.34;5005690;28;98949;-73
2020/12/04 07:02:08;;;;;;;38.63;19.00;;;;;;;5.02;48.30;98854.41;4998469;28;96685;-73
2020/12/04 07:04:37;;;;;;;41.45;20.42;;;;;;;5.03;48.54;98866.63;4991030;28;96906;-73
2020/12/04 07:07:06;;;;;;;41.63;20.58;;;;;;;5.05;48.54;98876.25;5001178;28;97325;-73
2020/12/04 07:09:35;;;;;;;41.72;20.38;;;;;;;5.07;47.91;98889.34;4999973;28;99228;-74
2020/12/04 07:12:03;;;;;;;36.65;19.30;;;;;;;5.08;48.47;98880.72;4999333;28;96746;-74
2020/12/04 07:14:32;;;;;;;34.60;18.95;;;;;;;5.08;48.23;98897.22;5005014;28;96925;-72
2020/12/04 07:16:59;;;;;;;41.97;20.23;;;;;;;5.09;48.46;98900.72;4991705;28;98388;-74
2020/12/04 07:19:28;;;;;;;37.22;20.15;;;;;;;5.07;48.34;98899.75;4998141;28;98027;-73
2020/12/04 07:21:56;;;;;;;40.95;20.15;;;;;;;5.09;48.25;98906.78;5001939;28;96840;-73
2020/12/04 07:24:23;;;;;;;33.75;19.73;;;;;;;5.11;48.51;98904.25;4999102;28;97386;-73
2020/12/04 07:26:53;;;;;;;35.60;19.00;;;;;;;5.13;48.12;98905.22;4998765;28;97950;-73
2020/12/04 07:29:21;;;;;;;40.75;19.85;;;;;;;5.12;48.67;98904.34;5001592;28;97843;-74
2020/12/04 07:31:52;;;;;;;38.65;19.42;;;;;;;5.12;48.67;98911.25;5001505;28;97234;-71
2020/12/04 07:34:22;;;;;;;34.83;19.27;;;;;;;5.15;48.75;98907.06;4995682;28;97558;-71
2020/12/04 07:36:54;;;;;;;34.25;18.52;;;;;;;5.19;48.35;98900.28;4999941;28;103253;-71
2020/12/04 07:39:27;;;;;;;35.95;19.85;;;;;;;5.21;48.60;98914.25;5001328;28;98807;-71
2020/12/04 07:41:56;;;;;;;40.45;18.63;;;;;;;5.24;48.69;98906.56;5003150;28;96863;-71
2020/12/04 07:44:32;;;;;;;42.15;19.70;;;;;;;5.24;48.55;98901.38;5002388;28;96863;-70
2020/12/04 07:47:05;;;;;;;41.72;19.33;;;;;;;5.26;48.33;98902.31;4997471;28;99356;-71
2020/12/04 07:49:34;;;;;;;35.88;19.15;;;;;;;5.31;48.29;98906.00;5001497;28;99140;-72
2020/12/04 07:52:16;;;;;;;43.83;20.70;;;;;;;5.31;48.53;98895.59;5003096;28;97143;-70
2020/12/04 07:54:44;;;;;;;35.50;18.58;;;;;;;5.31;48.19;98912.94;4997685;28;97476;-71
2020/12/04 07:57:12;;;;;;;35.85;19.63;;;;;;;5.32;48.23;98907.81;5001205;28;97918;-72
2020/12/04 07:59:40;;;;;;;34.40;18.92;;;;;;;5.35;48.52;98913.13;4996747;28;97902;-72
2020/12/04 08:02:09;;;;;;;37.20;19.98;;;;;;;5.39;48.32;98922.84;4992518;28;97007;-72
2020/12/04 08:04:42;;;;;;;35.88;18.73;;;;;;;5.42;48.56;98919.50;4992853;28;96885;-71
2020/12/04 08:07:10;;;;;;;39.60;19.23;;;;;;;5.45;48.54;98920.53;4997139;28;96760;-72
2020/12/04 08:09:40;;;;;;;36.40;19.58;;;;;;;5.50;48.43;98916.41;4994271;28;100466;-71
2020/12/04 08:12:12;;;;;;;37.83;19.02;;;;;;;5.52;47.89;98919.97;5000000;28;96931;-73
2020/12/04 08:14:41;;;;;;;34.47;17.75;;;;;;;5.54;48.70;98901.78;5001251;28;97337;-70
2020/12/04 08:17:09;;;;;;;37.40;20.17;;;;;;;5.59;48.00;98902.88;4998268;28;96978;-72
2020/12/04 08:19:37;;;;;;;32.78;17.50;;;;;;;5.62;48.47;98905.63;4996911;28;98215;-71
2020/12/04 08:22:06;;;;;;;35.08;18.85;;;;;;;5.66;47.99;98902.31;4996126;28;96840;-72
2020/12/04 08:24:35;;;;;;;35.58;18.23;;;;;;;5.66;47.74;98921.44;4997247;28;96839;-71
2020/12/04 08:27:08;;;;;;;35.25;19.13;;;;;;;5.67;48.43;98905.00;4996756;28;98023;-71
2020/12/04 08:29:37;;;;;;;35.75;18.30;;;;;;;5.71;47.71;98921.63;5001248;28;100129;-72
2020/12/04 08:32:07;;;;;;;34.47;17.02;;;;;;;5.73;48.47;98923.47;5000818;28;96854;-72
2020/12/04 08:34:36;;;;;;;42.05;18.90;;;;;;;5.76;47.92;98920.09;4973120;28;97536;-72
2020/12/04 08:37:05;;;;;;;31.20;18.35;;;;;;;5.77;48.30;98914.94;4999091;28;97327;-72
2020/12/04 08:39:41;;;;;;;35.80;19.63;;;;;;;5.78;48.40;98913.25;5002452;28;97748;-73
2020/12/04 08:42:14;;;;;;;29.45;17.30;;;;;;;5.79;48.51;98907.19;4999825;28;97020;-73
2020/12/04 08:45:06;;;;;;;33.78;16.65;;;;;;;5.83;47.77;98907.44;4993054;28;98532;-72
2020/12/04 08:47:40;;;;;;;29.50;17.13;;;;;;;5.85;48.27;98900.56;4999791;28;97318;-72
2020/12/04 08:50:12;;;;;;;32.22;17.23;;;;;;;5.87;48.05;98906.75;5001973;28;102123;-73
2020/12/04 08:52:44;;;;;;;31.20;17.58;;;;;;;5.89;48.34;98905.06;4998768;28;96893;-73
2020/12/04 08:55:13;;;;;;;33.60;17.33;;;;;;;5.93;48.16;98909.56;5000518;28;97311;-73
2020/12/04 08:57:42;;;;;;;37.10;22.87;;;;;;;6.15;47.98;98901.81;4985746;28;100645;-73
2020/12/04 09:00:11;;;;;;;32.47;18.17;;;;;;;6.07;48.45;98895.41;5006173;28;98045;-73
2020/12/04 09:02:39;;;;;;;32.53;17.27;;;;;;;6.06;47.87;98908.34;5008575;28;96984;-74
2020/12/04 09:05:12;;;;;;;29.58;16.70;;;;;;;6.04;48.29;98903.09;5000649;28;97660;-73
2020/12/04 09:07:40;;;;;;;30.33;15.93;;;;;;;6.03;48.53;98890.00;5001001;28;97862;-73
2020/12/04 09:10:09;;;;;;;30.30;17.10;;;;;;;6.02;47.95;98894.31;5000269;28;98060;-73
2020/12/04 09:12:37;;;;;;;33.80;16.27;;;;;;;6.02;47.75;98888.25;5004128;28;97155;-73
2020/12/04 09:15:08;;;;;;;27.67;16.15;;;;;;;6.00;47.94;98903.78;5001155;28;97159;-73
2020/12/04 09:17:36;;;;;;;28.30;16.98;;;;;;;5.98;48.19;98896.75;4997656;28;97106;-72
2020/12/04 09:20:05;;;;;;;27.90;16.35;;;;;;;5.96;48.05;98932.28;4994872;28;97410;-73
2020/12/04 09:22:35;;;;;;;31.42;16.02;;;;;;;5.95;48.13;98910.53;4996308;28;97419;-73
2020/12/04 09:25:04;;;;;;;30.10;16.75;;;;;;;5.96;48.10;98917.53;4996019;28;97308;-73
2020/12/04 09:27:32;;;;;;;30.80;16.08;;;;;;;5.93;48.42;98925.22;4973560;28;99497;-73
2020/12/04 09:29:59;;;;;;;28.52;16.30;;;;;;;5.96;48.71;98924.47;4995945;28;99011;-73
2020/12/04 09:32:28;;;;;;;30.17;16.98;;;;;;;6.00;48.62;98916.81;5004337;28;97217;-72
2020/12/04 09:34:56;;;;;;;33.72;16.23;;;;;;;6.03;47.96;98950.84;5002260;28;96940;-72
2020/12/04 09:37:25;;;;;;;32.13;16.83;;;;;;;6.07;48.15;98881.47;5008463;28;97844;-73
2020/12/04 09:39:55;;;;;;;29.80;16.42;;;;;;;6.09;47.57;98909.38;5004680;28;97829;-73
2020/12/04 09:42:24;;;;;;;29.20;16.13;;;;;;;6.13;47.90;98893.03;5006236;28;97124;-72
2020/12/04 09:44:53;;;;;;;24.52;14.55;;;;;;;6.16;48.04;98884.47;4998432;28;97139;-72
2020/12/04 09:47:21;;;;;;;42.13;19.85;;;;;;;6.18;48.12;98879.28;5008434;28;96906;-73
2020/12/04 09:49:49;;;;;;;40.47;21.52;;;;;;;6.21;48.28;98888.13;5000576;28;96622;-73
2020/12/04 09:52:18;;;;;;;36.67;20.38;;;;;;;6.27;48.27;98918.75;5005006;28;97466;-73
2020/12/04 09:54:47;;;;;;;27.88;15.95;;;;;;;6.29;47.70;98897.16;4998922;28;97101;-72
2020/12/04 09:57:16;;;;;;;28.52;15.10;;;;;;;6.33;47.88;98878.19;5001451;28;100194;-73
2020/12/04 09:59:44;;;;;;;30.10;15.25;;;;;;;6.35;47.86;98902.56;5000635;28;97815;-72
2020/12/04 10:02:12;;;;;;;28.00;16.33;;;;;;;6.37;48.12;98890.50;5002616;28;97106;-73
2020/12/04 10:04:39;;;;;;;31.73;16.42;;;;;;;6.40;47.99;98874.09;5002135;28;96981;-73
2020/12/04 10:07:07;;;;;;;26.45;14.95;;;;;;;6.41;47.67;98837.66;4997900;28;99335;-72
2020/12/04 10:09:35;;;;;;;27.63;15.00;;;;;;;6.43;47.70;98837.69;5000684;28;99868;-73
2020/12/04 10:12:03;;;;;;;25.17;15.40;;;;;;;6.45;47.53;98882.97;4999095;28;96758;-72
2020/12/04 10:14:33;;;;;;;23.02;14.60;;;;;;;6.48;47.33;98890.94;5004211;28;96831;-73
2020/12/04 10:17:02;;;;;;;29.23;15.45;;;;;;;6.52;47.47;98916.28;4997864;28;99086;-73
2020/12/04 10:19:29;;;;;;;29.35;15.65;;;;;;;6.55;48.01;98878.16;4999925;28;97831;-72
2020/12/04 10:21:57;;;;;;;26.25;15.13;;;;;;;6.59;47.38;98890.50;5001485;28;97262;-72
2020/12/04 10:24:25;;;;;;;23.15;14.68;;;;;;;6.64;47.71;98895.91;5001437;28;97223;-73
2020/12/04 10:26:53;;;;;;;26.45;15.05;;;;;;;6.70;47.99;98886.56;5002672;28;98968;-71
2020/12/04 10:29:21;;;;;;;27.08;14.60;;;;;;;6.77;47.66;98911.19;5000619;28;97870;-72
2020/12/04 10:31:50;;;;;;;24.52;14.93;;;;;;;6.82;47.57;98925.28;4999073;28;97543;-73
2020/12/04 10:34:36;;;;;;;23.85;13.98;;;;;;;6.88;46.99;98907.22;5014193;27;97335;-73
2020/12/04 10:37:03;;;;;;;25.48;14.45;;;;;;;6.93;47.29;98897.88;5001312;28;97169;-73
2020/12/04 10:39:31;;;;;;;20.73;13.55;;;;;;;6.93;47.08;98883.09;4997016;28;99122;-74
2020/12/04 10:41:59;;;;;;;24.30;14.38;;;;;;;6.97;47.40;98881.50;5003048;28;96716;-74
2020/12/04 10:44:26;;;;;;;26.23;14.30;;;;;;;6.95;46.88;98877.94;4998076;28;97238;-73
2020/12/04 10:46:55;;;;;;;27.77;17.58;;;;;;;7.16;46.81;98865.66;5002697;28;98194;-73
2020/12/04 10:49:22;;;;;;;24.20;14.73;;;;;;;7.07;47.01;98863.63;5002443;28;99036;-73
2020/12/04 10:51:54;;;;;;;25.77;14.05;;;;;;;7.06;47.61;98879.22;5011915;27;96918;-73
2020/12/04 10:54:22;;;;;;;23.95;13.93;;;;;;;7.06;47.38;98877.47;5000236;28;97609;-73
2020/12/04 10:56:54;;;;;;;20.42;12.52;;;;;;;7.06;46.84;98869.66;4999775;28;97821;-74
2020/12/04 10:59:22;;;;;;;26.65;15.50;;;;;;;7.09;47.27;98866.28;5000060;28;97648;-74
2020/12/04 11:01:55;;;;;;;21.05;14.35;;;;;;;7.14;47.00;98864.72;4996920;28;97847;-74
2020/12/04 11:07:10;;;;;;;23.63;14.07;;;;;;;7.20;46.86;98891.03;4983051;28;101413;-73
2020/12/04 11:09:57;;;;;;;43.78;19.45;;;;;;;7.21;47.37;98874.53;5000382;28;98392;-73
2020/12/04 11:12:25;;;;;;;30.77;15.93;;;;;;;7.21;46.78;98881.50;4996464;28;96840;-73
2020/12/04 11:14:52;;;;;;;24.02;14.80;;;;;;;7.21;47.26;98889.31;4994693;28;96993;-73
2020/12/04 11:17:20;;;;;;;22.77;13.38;;;;;;;7.20;47.14;98893.66;4994687;28;101106;-73
2020/12/04 11:19:48;;;;;;;23.52;13.73;;;;;;;7.22;47.28;98878.94;4996737;28;97819;-73
2020/12/04 11:22:16;;;;;;;26.08;15.15;;;;;;;7.25;47.44;98884.25;4994270;28;96855;-73
2020/12/04 11:24:43;;;;;;;26.88;14.45;;;;;;;7.24;46.97;98871.16;4995836;28;96909;-73
2020/12/04 11:27:12;;;;;;;24.50;14.13;;;;;;;7.23;47.34;98862.41;4995682;28;99246;-73
2020/12/04 11:29:40;;;;;;;22.50;13.82;;;;;;;7.22;46.94;98866.75;4998122;28;97905;-73
2020/12/04 11:32:07;;;;;;;22.73;14.55;;;;;;;7.22;47.53;98863.25;5005765;28;96716;-74
2020/12/04 11:34:35;;;;;;;20.70;14.10;;;;;;;7.24;47.28;98861.59;5007185;28;97362;-74
2020/12/04 11:37:04;;;;;;;26.17;13.40;;;;;;;7.25;47.09;98860.75;4994850;28;98679;-75
2020/12/04 11:39:34;;;;;;;25.70;14.00;;;;;;;7.26;47.01;98865.16;4996039;28;97548;-70